Aérodrome :
LOGIN :

S'inscrire | Disclaimer

   EN    FR    IT 

 










Légende :    VFR   VFR Marginal   IFR   IFR Intensif   IFR Très Intensif
Visi : 
Plafond : 
>= 8 km
>= 3000ft
5 à 8 km
1000 à 3000 ft
1500m à 5 km
500 à 1000 ft
800 à 1500m
200 à 500 ft
< 800m
< 200 ft
Symboles :   Orages  Brouillard  Fortes neiges  Fortes précipitations  Vent > 20 kt
SIGMETs :   Divers  Orages  Givrage  Turbulence  Onde Orograph.  Cendres Volcan.







- Altitude de l'aérodrome : 412 ft
- Code IATA : ORE
- Voir les cartes d'approche


LFOJ - Orleans

DERNIER METAR :
  • 212230Z AUTO 24009KT CAVOK 19/10 Q1011

METARs EXPIRÉS :
  • 212200Z AUTO 24011KT CAVOK 20/09 Q1011
  • 212130Z AUTO 24012KT CAVOK 21/10 Q1011
  • 212100Z AUTO 23015KT CAVOK 21/09 Q1010
  • 212030Z AUTO 23013KT CAVOK 22/10 Q1010
  • 212000Z AUTO 23012KT CAVOK 22/09 Q1009
  • 211930Z AUTO 24012KT CAVOK 23/09 Q1009

TAF TAF LFOJ
Valide du 21 à 15h jusqu'au 22 à 15h UTC


211400Z 2115/2215 24012KT CAVOK
TEMPO 2115/2119 23015G25KT
BECMG 2202/2204 18010KT -RA BKN013
TEMPO 2205/2209 4000 SHRA BKN006 SCT020CB OVC030
BECMG 2209/2211 25014KT NSW SCT020 BKN040
PROB30 2213/2215 VRB15G25KT 5000 -SHRA SCT030TCU
Pas de NOTAMs connus pour ce terrain.



MET'MAP, la Météo Aéronautique d'un coup d'oeil ! - Copyright ORBIFLY Décembre 2007 - Disclaimer

ORBIFLY MET'MAP TEAM :

Programmation & Développement : Alexandra Zaïnal
Conception & Développement : Baudouin d'Aumeries
Co-Programmation & Développement : Marc-Olivier Méhu
Soutien technique & logistique : Manuel Goepfert

Contact : metmap@orbifly.com




SOURCES & CREDITS :

   NOAA